sensor_id;sensor_type;location;lat;lon;timestamp;pressure;altitude;pressure_sealevel;temperature;humidity
25610;BME280;13479;49.044;8.716;2023-07-02T04:02:44;98558.94;;;17.62;82.02
25610;BME280;13479;49.044;8.716;2023-07-02T04:05:09;98579.53;;;17.76;81.10
25610;BME280;13479;49.044;8.716;2023-07-02T04:07:34;98582.78;;;17.71;81.15
25610;BME280;13479;49.044;8.716;2023-07-02T04:09:59;98574.94;;;17.70;81.26
25610;BME280;13479;49.044;8.716;2023-07-02T04:12:26;98576.97;;;17.68;81.15
25610;BME280;13479;49.044;8.716;2023-07-02T04:14:51;98586.03;;;17.67;80.57
25610;BME280;13479;49.044;8.716;2023-07-02T04:17:17;98585.66;;;17.70;79.87
25610;BME280;13479;49.044;8.716;2023-07-02T04:19:42;98579.53;;;17.76;79.45
25610;BME280;13479;49.044;8.716;2023-07-02T04:22:07;98587.53;;;17.91;79.09
25610;BME280;13479;49.044;8.716;2023-07-02T04:24:32;98579.47;;;18.06;78.70
25610;BME280;13479;49.044;8.716;2023-07-02T04:26:58;98582.03;;;18.14;78.05
25610;BME280;13479;49.044;8.716;2023-07-02T04:29:24;98587.59;;;18.34;76.88
25610;BME280;13479;49.044;8.716;2023-07-02T04:31:50;98583.28;;;18.40;75.91
25610;BME280;13479;49.044;8.716;2023-07-02T04:34:15;98569.00;;;18.40;75.34
25610;BME280;13479;49.044;8.716;2023-07-02T04:36:40;98549.50;;;18.31;75.42
25610;BME280;13479;49.044;8.716;2023-07-02T04:39:05;98548.47;;;18.32;75.13
25610;BME280;13479;49.044;8.716;2023-07-02T04:41:31;98567.72;;;18.35;74.29
25610;BME280;13479;49.044;8.716;2023-07-02T04:43:57;98555.44;;;18.26;74.54
25610;BME280;13479;49.044;8.716;2023-07-02T04:46:22;98556.59;;;18.39;74.42
25610;BME280;13479;49.044;8.716;2023-07-02T04:48:48;98577.63;;;18.57;73.79
25610;BME280;13479;49.044;8.716;2023-07-02T04:51:14;98568.25;;;18.52;73.42
25610;BME280;13479;49.044;8.716;2023-07-02T04:53:39;98562.78;;;18.61;72.94
25610;BME280;13479;49.044;8.716;2023-07-02T04:56:04;98553.72;;;18.68;73.04
25610;BME280;13479;49.044;8.716;2023-07-02T04:58:29;98570.13;;;18.80;72.47
25610;BME280;13479;49.044;8.716;2023-07-02T05:00:55;98568.09;;;18.82;71.87
25610;BME280;13479;49.044;8.716;2023-07-02T05:03:20;98569.94;;;18.82;70.65
25610;BME280;13479;49.044;8.716;2023-07-02T05:05:45;98578.69;;;18.91;69.84
25610;BME280;13479;49.044;8.716;2023-07-02T05:08:10;98576.00;;;18.91;69.06
25610;BME280;13479;49.044;8.716;2023-07-02T05:10:36;98569.78;;;18.90;69.15
25610;BME280;13479;49.044;8.716;2023-07-02T05:13:01;98558.00;;;18.91;68.91
25610;BME280;13479;49.044;8.716;2023-07-02T05:15:26;98564.50;;;18.97;68.27
25610;BME280;13479;49.044;8.716;2023-07-02T05:17:51;98546.69;;;18.96;68.66
25610;BME280;13479;49.044;8.716;2023-07-02T05:20:17;98569.22;;;19.30;67.27
25610;BME280;13479;49.044;8.716;2023-07-02T05:22:42;98597.28;;;20.31;64.72
25610;BME280;13479;49.044;8.716;2023-07-02T05:25:08;98594.59;;;21.51;61.52
25610;BME280;13479;49.044;8.716;2023-07-02T05:27:33;98576.34;;;22.24;58.79
25610;BME280;13479;49.044;8.716;2023-07-02T05:29:58;98571.66;;;22.88;56.02
25610;BME280;13479;49.044;8.716;2023-07-02T05:32:24;98569.50;;;23.16;54.90
25610;BME280;13479;49.044;8.716;2023-07-02T05:34:49;98560.88;;;23.74;52.86
25610;BME280;13479;49.044;8.716;2023-07-02T05:37:14;98571.75;;;24.71;50.86
25610;BME280;13479;49.044;8.716;2023-07-02T05:39:39;98593.06;;;25.39;48.79
25610;BME280;13479;49.044;8.716;2023-07-02T05:42:05;98598.78;;;26.24;46.95
25610;BME280;13479;49.044;8.716;2023-07-02T05:44:30;98605.91;;;27.33;44.32
25610;BME280;13479;49.044;8.716;2023-07-02T05:46:55;98620.91;;;28.02;41.40
25610;BME280;13479;49.044;8.716;2023-07-02T05:49:20;98634.88;;;28.65;40.00
25610;BME280;13479;49.044;8.716;2023-07-02T05:51:46;98639.66;;;29.23;39.04
25610;BME280;13479;49.044;8.716;2023-07-02T05:54:11;98651.06;;;29.48;38.22
25610;BME280;13479;49.044;8.716;2023-07-02T05:56:36;98660.88;;;30.07;37.12
25610;BME280;13479;49.044;8.716;2023-07-02T05:59:01;98673.56;;;30.96;35.42
25610;BME280;13479;49.044;8.716;2023-07-02T06:01:27;98673.72;;;31.62;33.46
25610;BME280;13479;49.044;8.716;2023-07-02T06:03:52;98698.59;;;31.91;32.89
25610;BME280;13479;49.044;8.716;2023-07-02T06:06:17;98701.63;;;32.45;31.59
25610;BME280;13479;49.044;8.716;2023-07-02T06:08:43;98713.25;;;32.21;31.78
25610;BME280;13479;49.044;8.716;2023-07-02T06:11:09;98726.06;;;31.91;32.11
25610;BME280;13479;49.044;8.716;2023-07-02T06:13:35;98725.19;;;31.96;31.58
25610;BME280;13479;49.044;8.716;2023-07-02T06:16:00;98727.22;;;31.54;32.21
25610;BME280;13479;49.044;8.716;2023-07-02T06:18:25;98707.00;;;30.88;33.25
25610;BME280;13479;49.044;8.716;2023-07-02T06:20:50;98707.84;;;32.11;31.71
25610;BME280;13479;49.044;8.716;2023-07-02T06:23:16;98721.91;;;32.49;30.92
25610;BME280;13479;49.044;8.716;2023-07-02T06:25:41;98734.50;;;32.55;30.96
25610;BME280;13479;49.044;8.716;2023-07-02T06:28:06;98730.91;;;32.04;30.77
25610;BME280;13479;49.044;8.716;2023-07-02T06:30:31;98733.28;;;32.72;30.70
25610;BME280;13479;49.044;8.716;2023-07-02T06:32:57;98742.72;;;32.60;30.21
25610;BME280;13479;49.044;8.716;2023-07-02T06:35:22;98735.84;;;32.08;31.01
25610;BME280;13479;49.044;8.716;2023-07-02T06:37:47;98744.19;;;32.92;29.73
25610;BME280;13479;49.044;8.716;2023-07-02T06:40:12;98749.06;;;33.60;29.25
25610;BME280;13479;49.044;8.716;2023-07-02T06:42:38;98743.72;;;32.75;29.14
25610;BME280;13479;49.044;8.716;2023-07-02T06:45:03;98735.06;;;32.57;30.46
25610;BME280;13479;49.044;8.716;2023-07-02T06:47:29;98728.50;;;31.93;30.61
25610;BME280;13479;49.044;8.716;2023-07-02T06:49:54;98722.41;;;32.06;30.83
25610;BME280;13479;49.044;8.716;2023-07-02T06:52:20;98716.31;;;32.64;30.10
25610;BME280;13479;49.044;8.716;2023-07-02T06:54:45;98739.56;;;32.83;29.50
25610;BME280;13479;49.044;8.716;2023-07-02T06:57:12;98744.94;;;32.98;29.21
25610;BME280;13479;49.044;8.716;2023-07-02T06:59:37;98740.81;;;33.60;29.00
25610;BME280;13479;49.044;8.716;2023-07-02T07:02:03;98742.13;;;34.73;26.56
25610;BME280;13479;49.044;8.716;2023-07-02T07:04:28;98747.00;;;35.76;25.29
25610;BME280;13479;49.044;8.716;2023-07-02T07:06:54;98770.72;;;36.18;24.82
25610;BME280;13479;49.044;8.716;2023-07-02T07:09:20;98778.91;;;36.38;23.96
25610;BME280;13479;49.044;8.716;2023-07-02T07:11:46;98787.41;;;36.92;23.47
25610;BME280;13479;49.044;8.716;2023-07-02T07:14:11;98789.25;;;37.28;22.73
25610;BME280;13479;49.044;8.716;2023-07-02T07:16:36;98779.69;;;37.34;22.43
25610;BME280;13479;49.044;8.716;2023-07-02T07:19:02;98795.19;;;37.98;21.71
25610;BME280;13479;49.044;8.716;2023-07-02T07:21:27;98792.47;;;38.25;21.48
25610;BME280;13479;49.044;8.716;2023-07-02T07:23:52;98797.28;;;39.12;20.85
25610;BME280;13479;49.044;8.716;2023-07-02T07:26:17;98802.06;;;39.68;20.05
25610;BME280;13479;49.044;8.716;2023-07-02T07:28:43;98785.56;;;39.72;18.80
25610;BME280;13479;49.044;8.716;2023-07-02T07:31:08;98801.25;;;39.67;18.92
25610;BME280;13479;49.044;8.716;2023-07-02T07:33:33;98795.53;;;38.81;19.58
25610;BME280;13479;49.044;8.716;2023-07-02T07:35:58;98799.44;;;38.13;19.72
25610;BME280;13479;49.044;8.716;2023-07-02T07:38:24;98796.19;;;38.03;20.25
25610;BME280;13479;49.044;8.716;2023-07-02T07:40:51;98791.44;;;37.63;20.37
25610;BME280;13479;49.044;8.716;2023-07-02T07:43:16;98787.38;;;37.37;20.38
25610;BME280;13479;49.044;8.716;2023-07-02T07:45:41;98790.69;;;36.43;21.65
25610;BME280;13479;49.044;8.716;2023-07-02T07:48:06;98784.97;;;36.12;21.80
25610;BME280;13479;49.044;8.716;2023-07-02T07:50:32;98767.56;;;35.69;21.77
25610;BME280;13479;49.044;8.716;2023-07-02T07:52:58;98752.13;;;35.68;21.55
25610;BME280;13479;49.044;8.716;2023-07-02T07:55:23;98757.03;;;35.71;21.58
25610;BME280;13479;49.044;8.716;2023-07-02T07:57:48;98760.06;;;35.56;21.30
25610;BME280;13479;49.044;8.716;2023-07-02T08:00:14;98759.22;;;34.32;22.51
25610;BME280;13479;49.044;8.716;2023-07-02T08:02:39;98741.28;;;33.08;23.20
25610;BME280;13479;49.044;8.716;2023-07-02T08:05:05;98731.25;;;31.93;25.09
25610;BME280;13479;49.044;8.716;2023-07-02T08:07:31;98721.78;;;31.38;25.83
25610;BME280;13479;49.044;8.716;2023-07-02T08:09:56;98726.44;;;30.81;26.51
25610;BME280;13479;49.044;8.716;2023-07-02T08:12:22;98728.41;;;31.11;26.66
25610;BME280;13479;49.044;8.716;2023-07-02T08:14:47;98715.22;;;30.98;26.89
25610;BME280;13479;49.044;8.716;2023-07-02T08:17:12;98712.78;;;32.09;26.17
25610;BME280;13479;49.044;8.716;2023-07-02T08:19:37;98700.13;;;32.13;25.74
25610;BME280;13479;49.044;8.716;2023-07-02T08:22:03;98707.81;;;33.30;24.49
25610;BME280;13479;49.044;8.716;2023-07-02T08:24:28;98717.41;;;33.38;23.78
25610;BME280;13479;49.044;8.716;2023-07-02T08:26:55;98734.63;;;32.79;24.75
25610;BME280;13479;49.044;8.716;2023-07-02T08:29:21;98727.94;;;32.51;25.27
25610;BME280;13479;49.044;8.716;2023-07-02T08:31:46;98729.34;;;32.48;25.22
25610;BME280;13479;49.044;8.716;2023-07-02T08:34:11;98727.44;;;32.44;25.50
25610;BME280;13479;49.044;8.716;2023-07-02T08:36:36;98721.72;;;31.64;26.40
25610;BME280;13479;49.044;8.716;2023-07-02T08:39:02;98720.66;;;31.55;27.06
25610;BME280;13479;49.044;8.716;2023-07-02T08:41:29;98713.50;;;31.69;27.36
25610;BME280;13479;49.044;8.716;2023-07-02T08:43:55;98707.72;;;31.71;26.73
25610;BME280;13479;49.044;8.716;2023-07-02T08:46:20;98707.44;;;31.67;26.93
25610;BME280;13479;49.044;8.716;2023-07-02T08:48:46;98706.16;;;30.87;27.57
25610;BME280;13479;49.044;8.716;2023-07-02T08:51:12;98710.41;;;29.52;29.00
25610;BME280;13479;49.044;8.716;2023-07-02T08:53:37;98699.78;;;29.23;29.79
25610;BME280;13479;49.044;8.716;2023-07-02T08:56:03;98691.13;;;28.66;30.43
25610;BME280;13479;49.044;8.716;2023-07-02T08:58:29;98694.84;;;28.55;30.82
25610;BME280;13479;49.044;8.716;2023-07-02T09:01:11;98697.03;;;30.25;29.92
25610;BME280;13479;49.044;8.716;2023-07-02T09:03:37;98692.41;;;32.25;26.72
25610;BME280;13479;49.044;8.716;2023-07-02T09:06:04;98719.69;;;33.25;25.33
25610;BME280;13479;49.044;8.716;2023-07-02T09:08:29;98738.56;;;33.62;24.05
25610;BME280;13479;49.044;8.716;2023-07-02T09:11:12;98751.16;;;34.60;23.43
25610;BME280;13479;49.044;8.716;2023-07-02T09:13:48;98765.44;;;35.00;23.13
25610;BME280;13479;49.044;8.716;2023-07-02T09:16:30;98757.81;;;35.44;22.16
25610;BME280;13479;49.044;8.716;2023-07-02T09:19:04;98778.50;;;36.30;21.55
25610;BME280;13479;49.044;8.716;2023-07-02T09:21:43;98784.03;;;37.27;21.20
25610;BME280;13479;49.044;8.716;2023-07-02T09:24:21;98787.06;;;37.16;21.00
25610;BME280;13479;49.044;8.716;2023-07-02T09:26:52;98783.63;;;36.23;21.44
25610;BME280;13479;49.044;8.716;2023-07-02T09:29:28;98796.00;;;35.84;21.42
25610;BME280;13479;49.044;8.716;2023-07-02T09:31:59;98786.31;;;35.06;22.94
25610;BME280;13479;49.044;8.716;2023-07-02T09:34:32;98768.28;;;34.95;22.86
25610;BME280;13479;49.044;8.716;2023-07-02T09:36:59;98775.59;;;35.19;22.34
25610;BME280;13479;49.044;8.716;2023-07-02T09:39:29;98769.59;;;34.40;23.44
25610;BME280;13479;49.044;8.716;2023-07-02T09:41:56;98764.03;;;34.64;23.52
25610;BME280;13479;49.044;8.716;2023-07-02T09:44:33;98753.22;;;35.06;23.33
25610;BME280;13479;49.044;8.716;2023-07-02T09:47:06;98755.25;;;34.82;23.01
25610;BME280;13479;49.044;8.716;2023-07-02T09:49:33;98741.53;;;34.57;23.74
25610;BME280;13479;49.044;8.716;2023-07-02T09:52:00;98735.75;;;35.11;23.06
25610;BME280;13479;49.044;8.716;2023-07-02T09:54:28;98754.06;;;35.21;23.44
25610;BME280;13479;49.044;8.716;2023-07-02T09:56:53;98745.25;;;35.19;23.38
25610;BME280;13479;49.044;8.716;2023-07-02T09:59:19;98746.44;;;34.41;23.65
25610;BME280;13479;49.044;8.716;2023-07-02T10:01:44;98735.78;;;33.67;24.83
25610;BME280;13479;49.044;8.716;2023-07-02T10:04:11;98723.44;;;32.65;25.92
25610;BME280;13479;49.044;8.716;2023-07-02T10:06:56;98712.00;;;31.98;26.70
25610;BME280;13479;49.044;8.716;2023-07-02T10:09:34;98705.88;;;31.25;26.75
25610;BME280;13479;49.044;8.716;2023-07-02T10:12:00;98702.63;;;30.66;27.87
25610;BME280;13479;49.044;8.716;2023-07-02T10:14:25;98700.38;;;30.53;28.26
25610;BME280;13479;49.044;8.716;2023-07-02T10:16:52;98698.13;;;30.18;28.93
25610;BME280;13479;49.044;8.716;2023-07-02T10:19:18;98698.38;;;29.53;29.34
25610;BME280;13479;49.044;8.716;2023-07-02T10:21:43;98694.69;;;28.94;30.83
25610;BME280;13479;49.044;8.716;2023-07-02T10:24:15;98688.06;;;29.71;30.74
25610;BME280;13479;49.044;8.716;2023-07-02T10:27:00;98690.16;;;30.12;29.97
25610;BME280;13479;49.044;8.716;2023-07-02T10:29:27;98684.38;;;29.98;29.97
25610;BME280;13479;49.044;8.716;2023-07-02T10:31:57;98678.00;;;29.82;29.82
25610;BME280;13479;49.044;8.716;2023-07-02T10:34:35;98676.63;;;29.84;29.67
25610;BME280;13479;49.044;8.716;2023-07-02T10:37:03;98669.63;;;30.14;29.84
25610;BME280;13479;49.044;8.716;2023-07-02T10:39:30;98670.81;;;30.80;29.11
25610;BME280;13479;49.044;8.716;2023-07-02T10:42:09;98684.50;;;31.06;28.13
25610;BME280;13479;49.044;8.716;2023-07-02T10:44:46;98688.91;;;30.92;28.37
25610;BME280;13479;49.044;8.716;2023-07-02T10:47:12;98706.72;;;30.79;28.25
25610;BME280;13479;49.044;8.716;2023-07-02T10:49:37;98696.56;;;30.79;28.48
25610;BME280;13479;49.044;8.716;2023-07-02T10:52:03;98699.31;;;31.05;27.96
25610;BME280;13479;49.044;8.716;2023-07-02T10:54:45;98697.16;;;31.13;27.91
25610;BME280;13479;49.044;8.716;2023-07-02T10:57:13;98689.34;;;31.61;27.74
25610;BME280;13479;49.044;8.716;2023-07-02T10:59:41;98692.06;;;31.77;27.02
25610;BME280;13479;49.044;8.716;2023-07-02T11:02:06;98693.91;;;31.92;27.42
25610;BME280;13479;49.044;8.716;2023-07-02T11:04:33;98701.75;;;32.24;27.31
25610;BME280;13479;49.044;8.716;2023-07-02T11:06:59;98716.28;;;32.25;26.91
25610;BME280;13479;49.044;8.716;2023-07-02T11:09:25;98721.06;;;31.98;26.65
25610;BME280;13479;49.044;8.716;2023-07-02T11:11:51;98714.03;;;31.71;27.24
25610;BME280;13479;49.044;8.716;2023-07-02T11:14:35;98711.75;;;31.94;26.78
25610;BME280;13479;49.044;8.716;2023-07-02T11:17:06;98718.75;;;31.50;27.00
25610;BME280;13479;49.044;8.716;2023-07-02T11:19:32;98710.53;;;31.09;27.62
25610;BME280;13479;49.044;8.716;2023-07-02T11:21:58;98710.28;;;30.64;28.21
25610;BME280;13479;49.044;8.716;2023-07-02T11:24:32;98691.81;;;30.13;28.69
25610;BME280;13479;49.044;8.716;2023-07-02T11:26:59;98683.16;;;29.78;28.50
25610;BME280;13479;49.044;8.716;2023-07-02T11:29:25;98671.00;;;29.43;29.39
25610;BME280;13479;49.044;8.716;2023-07-02T11:31:50;98653.31;;;29.18;29.70
25610;BME280;13479;49.044;8.716;2023-07-02T11:34:17;98634.19;;;29.23;29.50
25610;BME280;13479;49.044;8.716;2023-07-02T11:36:43;98641.50;;;29.07;28.89
25610;BME280;13479;49.044;8.716;2023-07-02T11:39:09;98643.28;;;28.91;28.95
25610;BME280;13479;49.044;8.716;2023-07-02T11:41:40;98652.00;;;28.88;29.63
25610;BME280;13479;49.044;8.716;2023-07-02T11:44:06;98652.06;;;28.93;30.56
25610;BME280;13479;49.044;8.716;2023-07-02T11:46:32;98652.31;;;28.59;31.60
25610;BME280;13479;49.044;8.716;2023-07-02T11:48:59;98641.91;;;28.24;31.70
25610;BME280;13479;49.044;8.716;2023-07-02T11:51:25;98640.53;;;28.26;31.84
25610;BME280;13479;49.044;8.716;2023-07-02T11:53:50;98626.09;;;28.26;32.06
25610;BME280;13479;49.044;8.716;2023-07-02T11:56:15;98630.38;;;28.49;32.31
25610;BME280;13479;49.044;8.716;2023-07-02T11:58:41;98630.88;;;28.46;30.92
25610;BME280;13479;49.044;8.716;2023-07-02T12:01:07;98638.88;;;28.20;31.31
25610;BME280;13479;49.044;8.716;2023-07-02T12:03:33;98627.88;;;28.15;31.34
25610;BME280;13479;49.044;8.716;2023-07-02T12:05:58;98624.53;;;28.08;31.74
25610;BME280;13479;49.044;8.716;2023-07-02T12:08:23;98615.66;;;27.95;32.24
25610;BME280;13479;49.044;8.716;2023-07-02T12:10:49;98603.59;;;28.13;31.62
25610;BME280;13479;49.044;8.716;2023-07-02T12:13:14;98614.81;;;28.17;31.10
25610;BME280;13479;49.044;8.716;2023-07-02T12:15:40;98614.63;;;28.29;31.40
25610;BME280;13479;49.044;8.716;2023-07-02T12:18:05;98622.38;;;28.37;30.93
25610;BME280;13479;49.044;8.716;2023-07-02T12:20:31;98632.09;;;28.28;30.53
25610;BME280;13479;49.044;8.716;2023-07-02T12:22:56;98639.47;;;28.27;29.97
25610;BME280;13479;49.044;8.716;2023-07-02T12:25:21;98636.69;;;28.22;29.55
25610;BME280;13479;49.044;8.716;2023-07-02T12:27:47;98634.22;;;28.20;30.73
25610;BME280;13479;49.044;8.716;2023-07-02T12:30:12;98644.53;;;28.13;29.07
25610;BME280;13479;49.044;8.716;2023-07-02T12:32:38;98644.31;;;28.20;30.02
25610;BME280;13479;49.044;8.716;2023-07-02T12:35:04;98643.94;;;28.11;29.89
25610;BME280;13479;49.044;8.716;2023-07-02T12:37:31;98643.53;;;28.02;29.99
25610;BME280;13479;49.044;8.716;2023-07-02T12:39:57;98648.22;;;28.07;30.03
25610;BME280;13479;49.044;8.716;2023-07-02T12:42:22;98644.63;;;28.01;29.29
25610;BME280;13479;49.044;8.716;2023-07-02T12:44:47;98638.66;;;28.04;28.98
25610;BME280;13479;49.044;8.716;2023-07-02T12:47:12;98649.78;;;28.20;29.51
25610;BME280;13479;49.044;8.716;2023-07-02T12:49:38;98650.19;;;28.34;29.99
25610;BME280;13479;49.044;8.716;2023-07-02T12:52:03;98636.47;;;28.29;30.22
25610;BME280;13479;49.044;8.716;2023-07-02T12:54:28;98640.72;;;28.14;30.78
25610;BME280;13479;49.044;8.716;2023-07-02T12:56:54;98636.44;;;28.01;30.39
25610;BME280;13479;49.044;8.716;2023-07-02T12:59:19;98630.75;;;27.81;31.04
25610;BME280;13479;49.044;8.716;2023-07-02T13:01:44;98631.50;;;27.98;30.20
25610;BME280;13479;49.044;8.716;2023-07-02T13:04:09;98619.84;;;27.81;29.41
25610;BME280;13479;49.044;8.716;2023-07-02T13:06:35;98632.22;;;27.66;29.81
25610;BME280;13479;49.044;8.716;2023-07-02T13:09:05;98630.56;;;27.65;29.92
25610;BME280;13479;49.044;8.716;2023-07-02T13:11:30;98637.84;;;27.37;28.93
25610;BME280;13479;49.044;8.716;2023-07-02T13:13:56;98630.16;;;27.34;29.30
25610;BME280;13479;49.044;8.716;2023-07-02T13:16:21;98624.72;;;27.34;28.98
25610;BME280;13479;49.044;8.716;2023-07-02T13:18:47;98638.00;;;27.48;28.05
25610;BME280;13479;49.044;8.716;2023-07-02T13:21:12;98641.31;;;27.33;28.97
25610;BME280;13479;49.044;8.716;2023-07-02T13:23:37;98627.44;;;27.34;28.78
25610;BME280;13479;49.044;8.716;2023-07-02T13:26:02;98626.63;;;27.34;28.90
25610;BME280;13479;49.044;8.716;2023-07-02T13:28:28;98636.34;;;27.47;29.62
25610;BME280;13479;49.044;8.716;2023-07-02T13:30:53;98619.31;;;27.56;29.50
25610;BME280;13479;49.044;8.716;2023-07-02T13:33:18;98617.09;;;27.53;29.65
25610;BME280;13479;49.044;8.716;2023-07-02T13:35:44;98613.38;;;27.20;30.63
25610;BME280;13479;49.044;8.716;2023-07-02T13:38:10;98609.16;;;27.12;30.72
25610;BME280;13479;49.044;8.716;2023-07-02T13:40:35;98608.84;;;27.09;29.51
25610;BME280;13479;49.044;8.716;2023-07-02T13:43:01;98605.13;;;26.98;30.54
25610;BME280;13479;49.044;8.716;2023-07-02T13:45:26;98587.31;;;27.07;30.09
25610;BME280;13479;49.044;8.716;2023-07-02T13:47:51;98586.38;;;27.19;30.10
25610;BME280;13479;49.044;8.716;2023-07-02T13:50:16;98590.31;;;27.28;29.52
25610;BME280;13479;49.044;8.716;2023-07-02T13:52:42;98610.00;;;27.13;30.04
25610;BME280;13479;49.044;8.716;2023-07-02T13:55:07;98621.75;;;26.96;29.30
25610;BME280;13479;49.044;8.716;2023-07-02T13:57:33;98619.28;;;26.95;29.89
25610;BME280;13479;49.044;8.716;2023-07-02T13:59:58;98613.16;;;26.88;29.47
25610;BME280;13479;49.044;8.716;2023-07-02T14:02:23;98608.53;;;27.05;29.56
25610;BME280;13479;49.044;8.716;2023-07-02T14:04:49;98614.56;;;27.07;28.97
25610;BME280;13479;49.044;8.716;2023-07-02T14:07:14;98621.97;;;27.12;28.80
25610;BME280;13479;49.044;8.716;2023-07-02T14:09:39;98623.72;;;27.01;29.26
25610;BME280;13479;49.044;8.716;2023-07-02T14:12:05;98621.06;;;27.06;29.46
25610;BME280;13479;49.044;8.716;2023-07-02T14:14:30;98616.91;;;27.21;29.28
25610;BME280;13479;49.044;8.716;2023-07-02T14:16:56;98618.06;;;27.25;29.19
25610;BME280;13479;49.044;8.716;2023-07-02T14:19:21;98618.63;;;27.27;29.37
25610;BME280;13479;49.044;8.716;2023-07-02T14:21:46;98621.50;;;27.37;28.98
25610;BME280;13479;49.044;8.716;2023-07-02T14:24:12;98603.16;;;27.50;28.97
25610;BME280;13479;49.044;8.716;2023-07-02T14:26:37;98621.00;;;27.40;29.25
25610;BME280;13479;49.044;8.716;2023-07-02T14:29:02;98633.47;;;27.36;28.30
25610;BME280;13479;49.044;8.716;2023-07-02T14:31:28;98634.22;;;27.32;28.56
25610;BME280;13479;49.044;8.716;2023-07-02T14:33:53;98619.81;;;27.14;29.52
25610;BME280;13479;49.044;8.716;2023-07-02T14:36:19;98614.31;;;27.31;28.92
25610;BME280;13479;49.044;8.716;2023-07-02T14:38:44;98630.75;;;27.36;29.02
25610;BME280;13479;49.044;8.716;2023-07-02T14:41:09;98627.13;;;27.31;28.92
25610;BME280;13479;49.044;8.716;2023-07-02T14:43:35;98622.94;;;27.23;28.81
25610;BME280;13479;49.044;8.716;2023-07-02T14:46:02;98614.53;;;27.24;29.89
25610;BME280;13479;49.044;8.716;2023-07-02T14:48:28;98613.81;;;27.34;28.80
25610;BME280;13479;49.044;8.716;2023-07-02T14:50:56;98620.41;;;27.38;28.64
25610;BME280;13479;49.044;8.716;2023-07-02T14:53:22;98629.44;;;27.22;28.59
25610;BME280;13479;49.044;8.716;2023-07-02T14:55:48;98615.78;;;27.17;28.71
25610;BME280;13479;49.044;8.716;2023-07-02T14:58:15;98625.66;;;27.23;28.81
25610;BME280;13479;49.044;8.716;2023-07-02T15:00:45;98627.03;;;27.25;28.65
25610;BME280;13479;49.044;8.716;2023-07-02T15:03:11;98628.72;;;27.09;29.11
25610;BME280;13479;49.044;8.716;2023-07-02T15:05:36;98620.47;;;27.21;28.89
25610;BME280;13479;49.044;8.716;2023-07-02T15:08:01;98614.13;;;27.16;29.18
25610;BME280;13479;49.044;8.716;2023-07-02T15:10:27;98617.91;;;27.15;29.07
25610;BME280;13479;49.044;8.716;2023-07-02T15:12:52;98614.28;;;27.09;28.98
25610;BME280;13479;49.044;8.716;2023-07-02T15:15:17;98610.06;;;27.18;29.08
25610;BME280;13479;49.044;8.716;2023-07-02T15:17:43;98620.19;;;27.23;28.46
25610;BME280;13479;49.044;8.716;2023-07-02T15:20:08;98608.50;;;27.22;29.04
25610;BME280;13479;49.044;8.716;2023-07-02T15:22:34;98594.09;;;27.27;29.16
25610;BME280;13479;49.044;8.716;2023-07-02T15:24:59;98603.94;;;27.28;28.92
25610;BME280;13479;49.044;8.716;2023-07-02T15:27:24;98614.13;;;27.16;28.99
25610;BME280;13479;49.044;8.716;2023-07-02T15:29:49;98624.56;;;27.02;28.57
25610;BME280;13479;49.044;8.716;2023-07-02T15:32:15;98609.16;;;27.12;28.66
25610;BME280;13479;49.044;8.716;2023-07-02T15:34:40;98596.16;;;27.20;29.24
25610;BME280;13479;49.044;8.716;2023-07-02T15:37:05;98606.38;;;27.07;28.76
25610;BME280;13479;49.044;8.716;2023-07-02T15:39:30;98606.31;;;27.02;28.28
25610;BME280;13479;49.044;8.716;2023-07-02T15:42:00;98614.66;;;26.95;28.77
25610;BME280;13479;49.044;8.716;2023-07-02T15:44:26;98609.19;;;26.95;29.13
25610;BME280;13479;49.044;8.716;2023-07-02T15:46:51;98603.91;;;27.06;28.70
25610;BME280;13479;49.044;8.716;2023-07-02T15:49:17;98598.75;;;27.09;28.65
25610;BME280;13479;49.044;8.716;2023-07-02T15:51:42;98597.06;;;27.03;29.01
25610;BME280;13479;49.044;8.716;2023-07-02T15:54:08;98609.50;;;26.99;28.91
25610;BME280;13479;49.044;8.716;2023-07-02T15:56:34;98602.84;;;26.90;28.91
25610;BME280;13479;49.044;8.716;2023-07-02T15:59:00;98591.03;;;27.01;29.20
25610;BME280;13479;49.044;8.716;2023-07-02T16:01:26;98592.19;;;27.05;29.20
25610;BME280;13479;49.044;8.716;2023-07-02T16:03:53;98594.34;;;27.03;29.54
25610;BME280;13479;49.044;8.716;2023-07-02T16:06:19;98588.78;;;26.98;29.37
25610;BME280;13479;49.044;8.716;2023-07-02T16:08:44;98588.38;;;27.06;29.35
25610;BME280;13479;49.044;8.716;2023-07-02T16:11:11;98597.97;;;26.92;28.93
25610;BME280;13479;49.044;8.716;2023-07-02T16:13:38;98597.50;;;26.95;28.77
25610;BME280;13479;49.044;8.716;2023-07-02T16:16:05;98597.22;;;26.96;28.83
25610;BME280;13479;49.044;8.716;2023-07-02T16:18:30;98604.41;;;26.86;28.83
25610;BME280;13479;49.044;8.716;2023-07-02T16:20:57;98616.78;;;26.76;28.53
25610;BME280;13479;49.044;8.716;2023-07-02T16:23:23;98610.69;;;26.69;29.04
25610;BME280;13479;49.044;8.716;2023-07-02T16:25:59;98605.31;;;26.74;28.61
25610;BME280;13479;49.044;8.716;2023-07-02T16:28:28;98625.84;;;26.65;29.10
25610;BME280;13479;49.044;8.716;2023-07-02T16:30:54;98620.94;;;26.62;29.05
25610;BME280;13479;49.044;8.716;2023-07-02T16:33:19;98622.38;;;26.52;29.02
25610;BME280;13479;49.044;8.716;2023-07-02T16:35:45;98613.50;;;26.40;29.32
25610;BME280;13479;49.044;8.716;2023-07-02T16:38:11;98595.53;;;26.56;28.80
25610;BME280;13479;49.044;8.716;2023-07-02T16:40:37;98601.50;;;26.41;29.08
25610;BME280;13479;49.044;8.716;2023-07-02T16:43:02;98598.78;;;26.41;29.22
25610;BME280;13479;49.044;8.716;2023-07-02T16:45:28;98600.44;;;26.42;29.00
25610;BME280;13479;49.044;8.716;2023-07-02T16:47:53;98603.09;;;26.37;29.41
25610;BME280;13479;49.044;8.716;2023-07-02T16:50:19;98601.13;;;26.32;29.54
25610;BME280;13479;49.044;8.716;2023-07-02T16:52:44;98599.44;;;26.14;29.45
25610;BME280;13479;49.044;8.716;2023-07-02T16:55:10;98587.22;;;26.17;29.67
25610;BME280;13479;49.044;8.716;2023-07-02T16:57:35;98594.84;;;26.03;29.58